createdAt,value
2019-05-10T00:00:41.288Z,0.00
2019-05-10T00:01:41.286Z,0.00
2019-05-10T00:02:41.280Z,0.00
2019-05-10T00:03:41.273Z,0.00
2019-05-10T00:04:41.270Z,0.00
2019-05-10T00:05:41.266Z,0.00
2019-05-10T00:06:41.265Z,0.00
2019-05-10T00:07:41.256Z,0.00
2019-05-10T00:08:41.252Z,0.00
2019-05-10T00:09:41.256Z,0.00
2019-05-10T00:10:41.239Z,0.00
2019-05-10T00:11:41.235Z,0.00
2019-05-10T00:12:41.234Z,0.00
2019-05-10T00:13:41.243Z,0.00
2019-05-10T00:14:41.220Z,0.00
2019-05-10T00:15:41.215Z,0.00
2019-05-10T00:16:41.213Z,0.00
2019-05-10T00:17:41.276Z,0.00
2019-05-10T00:18:41.203Z,0.00
2019-05-10T00:19:41.199Z,0.00
2019-05-10T00:20:41.187Z,0.00
2019-05-10T00:21:41.189Z,0.00
2019-05-10T00:22:41.183Z,0.00
2019-05-10T00:23:41.179Z,0.00
2019-05-10T00:24:41.177Z,0.00
2019-05-10T00:25:41.169Z,0.00
2019-05-10T00:26:41.165Z,0.00
2019-05-10T00:27:41.159Z,0.00
2019-05-10T00:28:41.155Z,0.00
2019-05-10T00:29:41.155Z,0.00
2019-05-10T00:30:41.149Z,0.00
2019-05-10T00:31:41.139Z,0.00
2019-05-10T00:32:41.139Z,0.00
2019-05-10T00:33:41.136Z,0.00
2019-05-10T00:34:41.127Z,0.00
2019-05-10T00:35:41.122Z,0.00
2019-05-10T00:36:41.118Z,0.00
2019-05-10T00:37:41.119Z,0.00
2019-05-10T00:38:41.106Z,0.00
2019-05-10T00:39:41.102Z,0.00
2019-05-10T00:40:41.100Z,0.00
2019-05-10T00:41:41.095Z,0.00
2019-05-10T00:42:41.093Z,0.00
2019-05-10T00:43:41.093Z,0.00
2019-05-10T00:44:41.080Z,0.00
2019-05-10T00:45:41.076Z,0.00
2019-05-10T00:46:41.072Z,0.00
2019-05-10T00:47:41.068Z,0.00
2019-05-10T00:48:41.060Z,0.00
2019-05-10T00:49:41.058Z,0.00
2019-05-10T00:50:41.050Z,0.00
2019-05-10T00:51:41.051Z,0.00
2019-05-10T00:52:41.041Z,0.00
2019-05-10T00:53:41.035Z,0.00
2019-05-10T00:54:41.034Z,0.00
2019-05-10T00:55:41.027Z,0.00
2019-05-10T00:56:41.024Z,0.00
2019-05-10T00:57:41.019Z,0.00
2019-05-10T00:58:41.014Z,0.00
2019-05-10T00:59:41.007Z,0.00
2019-05-10T01:00:41.003Z,0.00
2019-05-10T01:01:41.000Z,0.00
2019-05-10T01:02:40.995Z,0.00
2019-05-10T01:03:40.987Z,0.00
2019-05-10T01:04:40.983Z,0.00
2019-05-10T01:05:40.985Z,0.00
2019-05-10T01:06:40.977Z,0.00
2019-05-10T01:07:40.968Z,0.00
2019-05-10T01:08:40.965Z,0.00
2019-05-10T01:09:40.961Z,0.00
2019-05-10T01:10:40.954Z,0.00
2019-05-10T01:11:40.953Z,0.00
2019-05-10T01:12:40.945Z,0.00
2019-05-10T01:13:40.946Z,0.00
2019-05-10T01:14:40.938Z,0.00
2019-05-10T01:15:40.931Z,0.00
2019-05-10T01:16:40.927Z,0.00
2019-05-10T01:17:40.927Z,0.00
2019-05-10T01:18:40.919Z,0.00
2019-05-10T01:19:40.912Z,0.00
2019-05-10T01:20:40.908Z,0.00
2019-05-10T01:21:40.902Z,0.00
2019-05-10T01:22:40.898Z,0.00
2019-05-10T01:23:40.903Z,0.00
2019-05-10T01:24:40.892Z,0.00
2019-05-10T01:25:40.883Z,0.00
2019-05-10T01:26:40.879Z,0.00
2019-05-10T01:27:40.874Z,0.00
2019-05-10T01:28:40.875Z,0.00
2019-05-10T01:29:40.865Z,0.00
2019-05-10T01:30:40.862Z,0.00
2019-05-10T01:31:40.860Z,0.00
2019-05-10T01:32:40.853Z,0.00
2019-05-10T01:33:40.847Z,0.00
2019-05-10T01:34:40.843Z,0.00
2019-05-10T01:35:40.837Z,0.00
2019-05-10T01:36:40.831Z,0.00
2019-05-10T01:37:40.828Z,0.00
2019-05-10T01:38:40.821Z,0.00
2019-05-10T01:39:40.817Z,0.00
2019-05-10T01:40:40.813Z,0.00
2019-05-10T01:41:40.809Z,0.00
2019-05-10T01:42:40.804Z,0.00
2019-05-10T01:43:40.800Z,0.00
2019-05-10T01:44:40.795Z,0.00
2019-05-10T01:45:40.792Z,0.00
2019-05-10T01:46:40.786Z,0.00
2019-05-10T01:47:40.788Z,0.00
2019-05-10T01:48:40.776Z,0.00
2019-05-10T01:49:40.773Z,0.00
2019-05-10T01:50:40.770Z,0.00
2019-05-10T01:51:40.762Z,0.00
2019-05-10T01:52:40.764Z,0.00
2019-05-10T01:53:40.759Z,0.00
2019-05-10T01:54:40.750Z,0.00
2019-05-10T01:55:51.327Z,0.00
2019-05-10T01:56:40.741Z,0.00
2019-05-10T01:57:40.739Z,0.00
2019-05-10T01:58:40.734Z,0.00
2019-05-10T01:59:40.731Z,0.00
2019-05-10T02:00:40.724Z,0.00
2019-05-10T02:01:40.727Z,0.00
2019-05-10T02:02:40.715Z,0.00
2019-05-10T02:03:40.710Z,0.00
2019-05-10T02:04:40.704Z,0.00
2019-05-10T02:05:40.699Z,0.00
2019-05-10T02:06:40.699Z,0.00
2019-05-10T02:07:40.690Z,0.00
2019-05-10T02:08:40.686Z,0.00
2019-05-10T02:09:40.687Z,0.00
2019-05-10T02:10:40.676Z,0.00
2019-05-10T02:11:40.672Z,0.00
2019-05-10T02:12:40.668Z,0.00
2019-05-10T02:13:40.665Z,0.00
2019-05-10T02:14:40.659Z,0.00
2019-05-10T02:15:40.653Z,0.00
2019-05-10T02:16:40.649Z,0.00
2019-05-10T02:17:40.647Z,0.00
2019-05-10T02:18:40.641Z,0.00
2019-05-10T02:19:40.639Z,0.00
2019-05-10T02:20:40.634Z,0.00
2019-05-10T02:21:40.638Z,0.00
2019-05-10T02:22:40.623Z,0.00
2019-05-10T02:23:40.618Z,0.00
2019-05-10T02:24:40.615Z,0.00
2019-05-10T02:25:40.611Z,0.00
2019-05-10T02:26:40.605Z,0.00
2019-05-10T02:27:40.602Z,0.00
2019-05-10T02:28:40.598Z,0.00
2019-05-10T02:29:40.592Z,0.00
2019-05-10T02:30:40.587Z,0.00
2019-05-10T02:31:40.583Z,0.00
2019-05-10T02:32:40.588Z,0.00
2019-05-10T02:33:40.578Z,0.00
2019-05-10T02:34:40.567Z,0.00
2019-05-10T02:35:40.567Z,0.00
2019-05-10T02:36:40.571Z,0.00
2019-05-10T02:37:40.557Z,0.00
2019-05-10T02:38:40.555Z,0.00
2019-05-10T02:39:40.556Z,0.00
2019-05-10T02:40:40.543Z,0.00
2019-05-10T02:41:40.538Z,0.00
2019-05-10T02:42:40.567Z,0.00
2019-05-10T02:43:40.541Z,0.00
2019-05-10T02:44:40.528Z,0.00
2019-05-10T02:45:40.521Z,0.00
2019-05-10T02:46:40.516Z,0.00
2019-05-10T02:47:40.512Z,0.00
2019-05-10T02:48:40.507Z,0.00
2019-05-10T02:49:40.506Z,0.00
2019-05-10T02:50:40.498Z,0.00
2019-05-10T02:51:40.493Z,0.00
2019-05-10T02:52:40.489Z,0.00
2019-05-10T02:53:40.488Z,0.00
2019-05-10T02:54:40.485Z,0.00
2019-05-10T02:55:40.474Z,0.00
2019-05-10T02:56:40.473Z,0.00
2019-05-10T02:57:40.467Z,0.00
2019-05-10T02:58:40.470Z,0.00
2019-05-10T02:59:40.462Z,0.00
2019-05-10T03:00:40.452Z,0.00
2019-05-10T03:01:40.451Z,0.00
2019-05-10T03:02:40.443Z,0.00
2019-05-10T03:03:40.444Z,0.00
2019-05-10T03:04:40.439Z,0.00
2019-05-10T03:05:40.432Z,0.00
2019-05-10T03:06:40.428Z,0.00
2019-05-10T03:07:40.422Z,0.00
2019-05-10T03:08:40.416Z,0.00
2019-05-10T03:09:40.412Z,0.00
2019-05-10T03:10:40.408Z,0.00
2019-05-10T03:11:40.403Z,0.00
2019-05-10T03:12:40.402Z,0.00
2019-05-10T03:13:40.395Z,0.00
2019-05-10T03:14:40.395Z,0.00
2019-05-10T03:15:40.385Z,0.00
2019-05-10T03:16:40.379Z,0.00
2019-05-10T03:17:40.377Z,0.00
2019-05-10T03:18:40.374Z,0.00
2019-05-10T03:19:40.376Z,0.00
2019-05-10T03:20:40.365Z,0.00
2019-05-10T03:21:40.356Z,0.00
2019-05-10T03:22:40.353Z,0.00
2019-05-10T03:23:40.349Z,0.00
2019-05-10T03:24:40.344Z,0.00
2019-05-10T03:25:40.339Z,0.00
2019-05-10T03:26:50.306Z,0.00
2019-05-10T03:27:40.332Z,5.63
2019-05-10T03:28:40.332Z,5.63
2019-05-10T03:29:40.322Z,5.63
2019-05-10T03:30:40.316Z,5.63
2019-05-10T03:31:40.342Z,5.63
2019-05-10T03:32:40.308Z,5.63
2019-05-10T03:33:40.307Z,5.63
2019-05-10T03:34:40.299Z,5.63
2019-05-10T03:35:40.293Z,5.63
2019-05-10T03:36:40.290Z,5.63
2019-05-10T03:37:40.287Z,5.63
2019-05-10T03:38:40.279Z,5.63
2019-05-10T03:39:40.277Z,5.63
2019-05-10T03:40:40.271Z,5.63
2019-05-10T03:41:40.270Z,5.63
2019-05-10T03:42:40.285Z,5.63
2019-05-10T03:43:40.257Z,11.25
2019-05-10T03:44:40.255Z,11.25
2019-05-10T03:45:40.251Z,11.25
2019-05-10T03:46:40.251Z,11.25
2019-05-10T03:47:40.244Z,11.25
2019-05-10T03:48:40.242Z,11.25
2019-05-10T03:49:40.236Z,11.25
2019-05-10T03:50:40.227Z,11.25
2019-05-10T03:51:40.223Z,11.25
2019-05-10T03:52:40.217Z,11.25
2019-05-10T03:53:40.214Z,16.88
2019-05-10T03:54:40.209Z,16.88
2019-05-10T03:55:40.203Z,16.88
2019-05-10T03:56:40.203Z,16.88
2019-05-10T03:57:40.195Z,16.88
2019-05-10T03:58:40.191Z,16.88
2019-05-10T03:59:40.184Z,16.88
2019-05-10T04:00:40.182Z,16.88
2019-05-10T04:01:40.196Z,22.50
2019-05-10T04:02:40.177Z,22.50
2019-05-10T04:03:40.185Z,22.50
2019-05-10T04:04:40.165Z,22.50
2019-05-10T04:05:40.174Z,22.50
2019-05-10T04:06:40.164Z,22.50
2019-05-10T04:07:40.150Z,22.50
2019-05-10T04:08:40.145Z,22.50
2019-05-10T04:09:40.143Z,22.50
2019-05-10T04:10:40.155Z,22.50
2019-05-10T04:11:40.135Z,22.50
2019-05-10T04:12:40.130Z,22.50
2019-05-10T04:13:40.126Z,22.50
2019-05-10T04:14:40.119Z,28.13
2019-05-10T04:15:40.117Z,28.13
2019-05-10T04:16:40.113Z,28.13
2019-05-10T04:17:40.107Z,28.13
2019-05-10T04:18:40.104Z,33.75
2019-05-10T04:19:40.217Z,33.75
2019-05-10T04:20:40.094Z,33.75
2019-05-10T04:21:40.092Z,33.75
2019-05-10T04:22:40.111Z,33.75
2019-05-10T04:23:40.081Z,33.75
2019-05-10T04:24:40.088Z,33.75
2019-05-10T04:25:40.072Z,33.75
2019-05-10T04:26:40.068Z,39.38
2019-05-10T04:27:40.062Z,39.38
2019-05-10T04:28:40.064Z,39.38
2019-05-10T04:29:40.078Z,39.38
2019-05-10T04:30:40.050Z,39.38
2019-05-10T04:31:40.055Z,39.38
2019-05-10T04:32:40.038Z,39.38
2019-05-10T04:33:40.038Z,39.38
2019-05-10T04:34:40.033Z,45.00
2019-05-10T04:35:40.028Z,45.00
2019-05-10T04:36:40.029Z,45.00
2019-05-10T04:37:40.021Z,45.00
2019-05-10T04:38:40.014Z,50.63
2019-05-10T04:39:40.013Z,50.63
2019-05-10T04:40:40.009Z,56.25
2019-05-10T04:41:40.002Z,56.25
2019-05-10T04:42:40.004Z,61.88
2019-05-10T04:43:39.993Z,61.88
2019-05-10T04:44:40.005Z,61.88
2019-05-10T04:45:39.986Z,67.50
2019-05-10T04:46:39.986Z,67.50
2019-05-10T04:47:39.979Z,61.88
2019-05-10T04:48:39.973Z,61.88
2019-05-10T04:49:39.966Z,61.88
2019-05-10T04:50:39.965Z,67.50
2019-05-10T04:51:39.959Z,67.50
2019-05-10T04:52:39.954Z,67.50
2019-05-10T04:53:39.951Z,67.50
2019-05-10T04:54:39.947Z,73.13
2019-05-10T04:55:39.941Z,84.38
2019-05-10T04:56:39.937Z,84.38
2019-05-10T04:57:49.994Z,90.00
2019-05-10T04:58:39.930Z,84.38
2019-05-10T04:59:39.925Z,84.38
2019-05-10T05:00:39.924Z,90.00
2019-05-10T05:01:39.916Z,90.00
2019-05-10T05:02:39.916Z,84.38
2019-05-10T05:03:39.908Z,84.38
2019-05-10T05:04:39.909Z,84.38
2019-05-10T05:05:39.898Z,90.00
2019-05-10T05:06:39.895Z,95.63
2019-05-10T05:07:39.899Z,101.25
2019-05-10T05:08:39.908Z,112.50
2019-05-10T05:09:39.892Z,118.13
2019-05-10T05:10:39.888Z,123.75
2019-05-10T05:11:39.876Z,129.38
2019-05-10T05:12:39.873Z,135.00
2019-05-10T05:13:39.867Z,135.00
2019-05-10T05:14:39.873Z,135.00
2019-05-10T05:15:39.915Z,135.00
2019-05-10T05:16:39.865Z,135.00
2019-05-10T05:17:39.851Z,135.00
2019-05-10T05:18:39.850Z,140.63
2019-05-10T05:19:40.965Z,140.63
2019-05-10T05:20:39.853Z,140.63
2019-05-10T05:21:39.837Z,140.63
2019-05-10T05:22:39.833Z,140.63
2019-05-10T05:23:39.827Z,146.25
2019-05-10T05:24:39.825Z,146.25
2019-05-10T05:25:40.645Z,146.25
2019-05-10T05:26:39.818Z,151.88
2019-05-10T05:27:39.814Z,151.88
2019-05-10T05:28:39.809Z,157.50
2019-05-10T05:29:39.806Z,163.13
2019-05-10T05:30:39.807Z,168.75
2019-05-10T05:31:39.800Z,180.00
2019-05-10T05:32:44.659Z,191.25
2019-05-10T05:33:39.792Z,202.50
2019-05-10T05:34:39.794Z,213.75
2019-05-10T05:35:39.821Z,225.00
2019-05-10T05:36:39.781Z,236.25
2019-05-10T05:37:39.782Z,241.88
2019-05-10T05:38:40.504Z,247.50
2019-05-10T05:39:39.769Z,253.13
2019-05-10T05:40:39.768Z,264.38
2019-05-10T05:41:49.479Z,275.63
2019-05-10T05:42:39.758Z,286.88
2019-05-10T05:43:45.355Z,292.50
2019-05-10T05:44:39.753Z,298.13
2019-05-10T05:45:39.750Z,320.63
2019-05-10T05:46:39.801Z,343.13
2019-05-10T05:47:42.272Z,360.00
2019-05-10T05:48:40.719Z,371.25
2019-05-10T05:49:39.738Z,388.13
2019-05-10T05:50:39.740Z,405.00
2019-05-10T05:51:39.730Z,444.38
2019-05-10T05:52:39.741Z,691.88
2019-05-10T05:53:42.218Z,450.00
2019-05-10T05:54:39.724Z,461.25
2019-05-10T05:55:39.719Z,455.63
2019-05-10T05:56:44.443Z,455.63
2019-05-10T05:57:39.714Z,450.00
2019-05-10T05:58:44.688Z,450.00
2019-05-10T05:59:39.706Z,466.88
2019-05-10T06:00:44.535Z,444.38
2019-05-10T06:01:39.709Z,438.75
2019-05-10T06:02:43.940Z,455.63
2019-05-10T06:03:39.698Z,483.75
2019-05-10T06:04:40.735Z,720.00
2019-05-10T06:05:39.700Z,472.50
2019-05-10T06:06:39.695Z,489.38
2019-05-10T06:07:39.691Z,523.13
2019-05-10T06:08:39.692Z,928.13
2019-05-10T06:09:39.679Z,455.63
2019-05-10T06:10:39.696Z,444.38
2019-05-10T06:11:39.684Z,433.13
2019-05-10T06:12:44.490Z,438.75
2019-05-10T06:13:39.682Z,450.00
2019-05-10T06:14:43.358Z,410.63
2019-05-10T06:15:39.676Z,393.75
2019-05-10T06:16:44.783Z,399.38
2019-05-10T06:17:39.677Z,376.88
2019-05-10T06:18:41.763Z,376.88
2019-05-10T06:19:39.667Z,331.88
2019-05-10T06:20:44.501Z,315.00
2019-05-10T06:21:39.668Z,309.38
2019-05-10T06:22:44.016Z,298.13
2019-05-10T06:23:39.661Z,286.88
2019-05-10T06:24:39.662Z,270.00
2019-05-10T06:25:42.446Z,258.75
2019-05-10T06:26:39.656Z,247.50
2019-05-10T06:27:41.251Z,236.25
2019-05-10T06:29:42.904Z,230.63
2019-05-10T06:30:39.649Z,230.63
2019-05-10T06:31:39.652Z,219.38
2019-05-10T06:32:39.645Z,213.75
2019-05-10T06:33:44.838Z,208.13
2019-05-10T06:34:40.256Z,202.50
2019-05-10T06:35:39.647Z,208.13
2019-05-10T06:36:39.697Z,219.38
2019-05-10T06:37:39.634Z,241.88
2019-05-10T06:38:39.643Z,326.25
2019-05-10T06:39:39.637Z,292.50
2019-05-10T06:40:46.753Z,315.00
2019-05-10T06:41:39.632Z,331.88
2019-05-10T06:42:39.628Z,337.50
2019-05-10T06:43:39.625Z,343.13
2019-05-10T06:44:39.626Z,343.13
2019-05-10T06:45:39.626Z,354.38
2019-05-10T06:46:39.645Z,376.88
2019-05-10T06:47:41.865Z,382.50
2019-05-10T06:48:39.619Z,393.75
2019-05-10T06:49:41.705Z,421.88
2019-05-10T06:50:39.619Z,455.63
2019-05-10T06:51:42.873Z,489.38
2019-05-10T06:52:39.619Z,517.50
2019-05-10T06:53:42.244Z,511.88
2019-05-10T06:54:39.749Z,663.75
2019-05-10T06:55:39.623Z,495.00
2019-05-10T06:56:39.608Z,495.00
2019-05-10T06:57:39.604Z,540.00
2019-05-10T06:58:39.603Z,534.38
2019-05-10T06:59:39.601Z,556.88
2019-05-10T07:00:44.691Z,601.88
2019-05-10T07:01:45.862Z,630.00
2019-05-10T07:02:39.601Z,500.63
2019-05-10T07:03:39.598Z,489.38
2019-05-10T07:04:41.133Z,478.13
2019-05-10T07:05:39.596Z,472.50
2019-05-10T07:06:39.590Z,472.50
2019-05-10T07:07:44.595Z,478.13
2019-05-10T07:08:44.163Z,472.50
2019-05-10T07:10:01.601Z,450.00
2019-05-10T07:10:39.591Z,410.63
2019-05-10T07:11:39.586Z,376.88
2019-05-10T07:12:39.622Z,354.38
2019-05-10T07:13:40.478Z,343.13
2019-05-10T07:14:45.515Z,326.25
2019-05-10T07:15:42.173Z,315.00
2019-05-10T07:16:39.584Z,303.75
2019-05-10T07:17:45.195Z,292.50
2019-05-10T07:18:39.581Z,281.25
2019-05-10T07:19:42.051Z,281.25
2019-05-10T07:20:43.027Z,286.88
2019-05-10T07:21:44.193Z,281.25
2019-05-10T07:22:39.575Z,264.38
2019-05-10T07:23:44.931Z,258.75
2019-05-10T07:24:39.574Z,258.75
2019-05-10T07:25:43.893Z,275.63
2019-05-10T07:26:39.573Z,281.25
2019-05-10T07:27:39.568Z,281.25
2019-05-10T07:28:39.572Z,275.63
2019-05-10T07:29:43.269Z,270.00
2019-05-10T07:30:41.499Z,270.00
2019-05-10T07:31:39.563Z,264.38
2019-05-10T07:32:39.577Z,253.13
2019-05-10T07:33:40.250Z,241.88
2019-05-10T07:34:39.559Z,230.63
2019-05-10T07:35:39.633Z,219.38
2019-05-10T07:36:39.555Z,219.38
2019-05-10T07:37:39.556Z,225.00
2019-05-10T07:38:39.560Z,236.25
2019-05-10T07:39:39.557Z,241.88
2019-05-10T07:40:39.552Z,247.50
2019-05-10T07:41:39.571Z,258.75
2019-05-10T07:42:44.916Z,270.00
2019-05-10T07:43:39.548Z,281.25
2019-05-10T07:44:44.715Z,303.75
2019-05-10T07:45:39.547Z,320.63
2019-05-10T07:46:40.243Z,343.13
2019-05-10T07:47:39.543Z,371.25
2019-05-10T07:48:41.137Z,410.63
2019-05-10T07:49:39.538Z,500.63
2019-05-10T07:50:42.253Z,866.25
2019-05-10T07:51:39.537Z,1462.50
2019-05-10T07:52:43.655Z,1237.50
2019-05-10T07:53:39.534Z,1046.25
2019-05-10T07:54:45.397Z,579.38
2019-05-10T07:55:39.531Z,511.88
2019-05-10T07:56:45.807Z,478.13
2019-05-10T07:57:39.530Z,444.38
2019-05-10T07:58:43.163Z,433.13
2019-05-10T07:59:50.302Z,444.38
2019-05-10T08:00:44.578Z,472.50
2019-05-10T08:01:39.530Z,540.00
2019-05-10T08:02:39.525Z,573.75
2019-05-10T08:03:44.246Z,596.25
2019-05-10T08:04:39.537Z,697.50
2019-05-10T08:05:39.536Z,765.00
2019-05-10T08:06:43.822Z,1175.63
2019-05-10T08:07:39.521Z,810.00
2019-05-10T08:08:39.524Z,781.88
2019-05-10T08:09:44.710Z,1586.25
2019-05-10T08:10:39.628Z,1676.25
2019-05-10T08:11:39.520Z,1406.25
2019-05-10T08:12:44.295Z,2334.38
2019-05-10T08:13:39.592Z,1918.13
2019-05-10T08:14:44.330Z,2171.25
2019-05-10T08:15:39.526Z,2683.13
2019-05-10T08:16:39.523Z,871.88
2019-05-10T08:17:43.376Z,725.63
2019-05-10T08:18:42.164Z,669.38
2019-05-10T08:19:39.531Z,3285.00
2019-05-10T08:20:49.497Z,1884.38
2019-05-10T08:21:41.818Z,2480.63
2019-05-10T08:22:44.456Z,1096.88
2019-05-10T08:23:41.057Z,1411.88
2019-05-10T08:24:46.489Z,1490.63
2019-05-10T08:25:44.028Z,1749.38
2019-05-10T08:26:39.535Z,2244.38
2019-05-10T08:27:44.023Z,2643.75
2019-05-10T08:28:42.233Z,3560.63
2019-05-10T08:29:39.543Z,3110.63
2019-05-10T08:30:42.739Z,3571.88
2019-05-10T08:31:40.879Z,1906.88
2019-05-10T08:32:39.554Z,2970.00
2019-05-10T08:33:46.380Z,3346.88
2019-05-10T08:34:45.001Z,3459.38
2019-05-10T08:35:43.384Z,1012.50
2019-05-10T08:36:45.832Z,826.88
2019-05-10T08:37:39.571Z,3273.75
2019-05-10T08:38:44.782Z,990.00
2019-05-10T08:39:45.296Z,3121.88
2019-05-10T08:40:39.587Z,916.88
2019-05-10T08:41:39.593Z,832.50
2019-05-10T08:42:45.321Z,708.75
2019-05-10T08:43:40.811Z,759.38
2019-05-10T08:44:39.600Z,714.38
2019-05-10T08:45:45.164Z,556.88
2019-05-10T08:46:41.426Z,596.25
2019-05-10T08:47:39.614Z,708.75
2019-05-10T08:48:46.752Z,2880.00
2019-05-10T08:49:52.275Z,2964.38
2019-05-10T08:50:52.739Z,765.00
2019-05-10T08:51:47.175Z,663.75
2019-05-10T08:52:42.112Z,787.50
2019-05-10T08:53:41.902Z,596.25
2019-05-10T08:54:42.144Z,725.63
2019-05-10T08:55:39.644Z,843.75
2019-05-10T08:56:43.572Z,894.38
2019-05-10T08:57:44.244Z,776.25
2019-05-10T08:58:42.028Z,753.75
2019-05-10T08:59:39.652Z,658.13
2019-05-10T09:00:53.340Z,568.13
2019-05-10T09:01:48.958Z,528.75
2019-05-10T09:02:39.662Z,590.63
2019-05-10T09:03:41.787Z,506.25
2019-05-10T09:04:44.634Z,523.13
2019-05-10T09:05:40.148Z,472.50
2019-05-10T09:06:41.880Z,556.88
2019-05-10T09:07:39.673Z,562.50
2019-05-10T09:08:39.676Z,466.88
2019-05-10T09:09:45.549Z,579.38
2019-05-10T09:10:41.991Z,686.25
2019-05-10T09:11:44.056Z,675.00
2019-05-10T09:12:44.204Z,607.50
2019-05-10T09:13:42.512Z,455.63
2019-05-10T09:14:39.688Z,483.75
2019-05-10T09:15:43.154Z,506.25
2019-05-10T09:16:43.702Z,585.00
2019-05-10T09:17:39.696Z,658.13
2019-05-10T09:18:46.276Z,556.88
2019-05-10T09:19:41.793Z,658.13
2019-05-10T09:20:41.963Z,635.63
2019-05-10T09:21:41.277Z,500.63
2019-05-10T09:22:39.699Z,438.75
2019-05-10T09:23:39.702Z,421.88
2019-05-10T09:24:43.221Z,416.25
2019-05-10T09:25:42.395Z,416.25
2019-05-10T09:26:41.780Z,461.25
2019-05-10T09:27:39.707Z,410.63
2019-05-10T09:28:41.950Z,365.63
2019-05-10T09:29:39.709Z,393.75
2019-05-10T09:30:54.246Z,433.13
2019-05-10T09:31:45.940Z,483.75
2019-05-10T09:32:40.064Z,483.75
2019-05-10T09:33:43.366Z,534.38
2019-05-10T09:34:39.716Z,596.25
2019-05-10T09:35:46.928Z,573.75
2019-05-10T09:36:42.937Z,556.88
2019-05-10T09:37:41.892Z,523.13
2019-05-10T09:38:43.433Z,500.63
2019-05-10T09:39:39.721Z,500.63
2019-05-10T09:40:50.211Z,500.63
2019-05-10T09:41:39.727Z,540.00
2019-05-10T09:42:43.038Z,635.63
2019-05-10T09:43:47.989Z,675.00
2019-05-10T09:44:39.730Z,652.50
2019-05-10T09:45:42.172Z,590.63
2019-05-10T09:46:42.015Z,461.25
2019-05-10T09:47:39.730Z,393.75
2019-05-10T09:48:39.730Z,264.38
2019-05-10T09:49:44.269Z,185.63
2019-05-10T09:50:44.244Z,140.63
2019-05-10T09:51:42.088Z,101.25
2019-05-10T09:52:39.733Z,84.38
2019-05-10T09:53:39.735Z,78.75
2019-05-10T09:54:39.733Z,78.75
2019-05-10T09:55:39.735Z,73.13
2019-05-10T09:56:44.329Z,78.75
2019-05-10T09:57:39.739Z,84.38
2019-05-10T09:58:39.736Z,90.00
2019-05-10T09:59:39.738Z,95.63
2019-05-10T10:00:39.741Z,95.63
2019-05-10T10:01:39.738Z,95.63
2019-05-10T10:02:40.703Z,95.63
2019-05-10T10:03:43.265Z,95.63
2019-05-10T10:04:39.739Z,95.63
2019-05-10T10:05:40.277Z,101.25
2019-05-10T10:06:41.906Z,106.88
2019-05-10T10:07:39.737Z,118.13
2019-05-10T10:08:43.583Z,135.00
2019-05-10T10:09:44.664Z,146.25
2019-05-10T10:10:39.743Z,157.50
2019-05-10T10:11:39.740Z,168.75
2019-05-10T10:12:39.739Z,180.00
2019-05-10T10:13:43.525Z,191.25
2019-05-10T10:14:43.309Z,202.50
2019-05-10T10:15:39.739Z,213.75
2019-05-10T10:16:39.736Z,213.75
2019-05-10T10:17:42.298Z,213.75
2019-05-10T10:18:39.734Z,213.75
2019-05-10T10:19:40.703Z,219.38
2019-05-10T10:20:43.531Z,225.00
2019-05-10T10:21:39.729Z,236.25
2019-05-10T10:22:43.335Z,241.88
2019-05-10T10:23:39.730Z,253.13
2019-05-10T10:24:41.145Z,264.38
2019-05-10T10:25:40.549Z,281.25
2019-05-10T10:26:39.725Z,303.75
2019-05-10T10:27:39.768Z,320.63
2019-05-10T10:28:39.918Z,326.25
2019-05-10T10:29:39.726Z,326.25
2019-05-10T10:30:39.723Z,331.88
2019-05-10T10:31:51.185Z,348.75
2019-05-10T10:32:39.729Z,365.63
2019-05-10T10:33:42.800Z,399.38
2019-05-10T10:34:43.059Z,433.13
2019-05-10T10:35:39.723Z,450.00
2019-05-10T10:36:43.740Z,438.75
2019-05-10T10:37:39.725Z,348.75
2019-05-10T10:38:45.315Z,286.88
2019-05-10T10:39:39.715Z,253.13
2019-05-10T10:40:44.476Z,225.00
2019-05-10T10:41:39.715Z,213.75
2019-05-10T10:42:39.715Z,196.88
2019-05-10T10:43:39.707Z,151.88
2019-05-10T10:44:39.711Z,157.50
2019-05-10T10:45:39.713Z,135.00
2019-05-10T10:46:39.712Z,146.25
2019-05-10T10:47:39.710Z,202.50
2019-05-10T10:48:43.761Z,275.63
2019-05-10T10:49:39.709Z,337.50
2019-05-10T10:50:44.288Z,337.50
2019-05-10T10:51:39.725Z,326.25
2019-05-10T10:52:39.708Z,343.13
2019-05-10T10:53:39.707Z,354.38
2019-05-10T10:54:40.046Z,388.13
2019-05-10T10:55:40.360Z,489.38
2019-05-10T10:56:39.702Z,523.13
2019-05-10T10:57:39.702Z,517.50
2019-05-10T10:58:39.700Z,483.75
2019-05-10T10:59:39.698Z,455.63
2019-05-10T11:00:39.698Z,438.75
2019-05-10T11:01:49.895Z,438.75
2019-05-10T11:02:41.621Z,461.25
2019-05-10T11:03:39.695Z,433.13
2019-05-10T11:04:40.377Z,433.13
2019-05-10T11:05:39.694Z,427.50
2019-05-10T11:06:39.696Z,399.38
2019-05-10T11:07:44.299Z,337.50
2019-05-10T11:08:41.309Z,275.63
2019-05-10T11:09:41.012Z,275.63
2019-05-10T11:10:40.545Z,247.50
2019-05-10T11:11:44.431Z,219.38
2019-05-10T11:12:41.272Z,213.75
2019-05-10T11:13:45.435Z,258.75
2019-05-10T11:14:43.926Z,337.50
2019-05-10T11:15:41.881Z,405.00
2019-05-10T11:16:41.265Z,421.88
2019-05-10T11:17:40.775Z,421.88
2019-05-10T11:18:41.856Z,421.88
2019-05-10T11:19:41.670Z,405.00
2019-05-10T11:20:41.913Z,421.88
2019-05-10T11:21:41.496Z,444.38
2019-05-10T11:22:41.876Z,472.50
2019-05-10T11:23:41.898Z,478.13
2019-05-10T11:24:39.675Z,466.88
2019-05-10T11:25:44.316Z,450.00
2019-05-10T11:26:40.954Z,427.50
2019-05-10T11:27:41.578Z,421.88
2019-05-10T11:28:43.831Z,427.50
2019-05-10T11:29:41.646Z,427.50
2019-05-10T11:30:39.671Z,421.88
2019-05-10T11:31:41.358Z,405.00
2019-05-10T11:32:41.848Z,427.50
2019-05-10T11:33:41.450Z,433.13
2019-05-10T11:34:39.663Z,444.38
2019-05-10T11:35:41.714Z,472.50
2019-05-10T11:36:45.269Z,489.38
2019-05-10T11:37:42.108Z,483.75
2019-05-10T11:38:41.771Z,483.75
2019-05-10T11:39:45.212Z,483.75
2019-05-10T11:40:41.962Z,472.50
2019-05-10T11:41:39.656Z,450.00
2019-05-10T11:42:43.787Z,444.38
2019-05-10T11:43:41.834Z,433.13
2019-05-10T11:44:41.586Z,421.88
2019-05-10T11:45:43.685Z,416.25
2019-05-10T11:46:41.645Z,461.25
2019-05-10T11:47:40.945Z,500.63
2019-05-10T11:48:41.931Z,495.00
2019-05-10T11:49:40.617Z,483.75
2019-05-10T11:50:41.044Z,483.75
2019-05-10T11:51:41.317Z,478.13
2019-05-10T11:52:40.786Z,450.00
2019-05-10T11:53:41.433Z,455.63
2019-05-10T11:54:41.719Z,472.50
2019-05-10T11:55:41.207Z,466.88
2019-05-10T11:56:41.038Z,444.38
2019-05-10T11:57:43.926Z,421.88
2019-05-10T11:58:49.043Z,416.25
2019-05-10T11:59:41.580Z,399.38
2019-05-10T12:00:41.351Z,405.00
2019-05-10T12:01:41.797Z,410.63
2019-05-10T12:03:00.930Z,399.38
2019-05-10T12:03:42.404Z,360.00
2019-05-10T12:04:43.245Z,320.63
2019-05-10T12:05:42.268Z,275.63
2019-05-10T12:06:41.279Z,253.13
2019-05-10T12:07:45.503Z,236.25
2019-05-10T12:08:41.852Z,202.50
2019-05-10T12:09:42.588Z,213.75
2019-05-10T12:11:51.156Z,230.63
2019-05-10T12:13:39.632Z,309.38
2019-05-10T12:14:43.772Z,281.25
2019-05-10T12:15:42.964Z,270.00
2019-05-10T12:16:41.964Z,253.13
2019-05-10T12:17:46.342Z,264.38
2019-05-10T12:18:46.520Z,258.75
2019-05-10T12:19:45.446Z,270.00
2019-05-10T12:20:54.082Z,286.88
2019-05-10T12:21:39.626Z,286.88
2019-05-10T12:22:46.374Z,292.50
2019-05-10T12:23:47.275Z,298.13
2019-05-10T12:24:53.782Z,270.00
2019-05-10T12:26:05.804Z,236.25
2019-05-10T12:26:27.644Z,275.63
2019-05-10T12:26:58.896Z,191.25
2019-05-10T12:27:45.209Z,230.63
2019-05-10T12:28:40.763Z,225.00
2019-05-10T12:29:39.620Z,241.88
2019-05-10T12:30:40.893Z,264.38
2019-05-10T12:31:41.470Z,309.38
2019-05-10T12:32:54.998Z,360.00
2019-05-10T12:33:42.912Z,371.25
2019-05-10T12:34:40.995Z,303.75
2019-05-10T12:35:46.347Z,264.38
2019-05-10T12:36:41.200Z,247.50
2019-05-10T12:37:46.166Z,219.38
2019-05-10T12:38:39.613Z,202.50
2019-05-10T12:39:39.614Z,196.88
2019-05-10T12:40:41.335Z,174.38
2019-05-10T12:41:44.906Z,151.88
2019-05-10T12:42:41.768Z,146.25
2019-05-10T12:43:40.916Z,151.88
2019-05-10T12:44:43.990Z,151.88
2019-05-10T12:45:41.644Z,151.88
2019-05-10T12:46:42.103Z,163.13